createdAt,value
2022-09-12T00:04:54.400Z,14.81
2022-09-12T00:09:55.279Z,14.73
2022-09-12T00:14:56.067Z,14.65
2022-09-12T00:19:56.841Z,14.61
2022-09-12T00:24:57.628Z,14.57
2022-09-12T00:29:58.440Z,14.55
2022-09-12T00:34:59.371Z,14.51
2022-09-12T00:40:00.333Z,14.46
2022-09-12T00:45:00.826Z,14.36
2022-09-12T00:50:01.021Z,14.29
2022-09-12T00:55:01.814Z,14.25
2022-09-12T01:00:03.047Z,14.21
2022-09-12T01:05:03.241Z,14.17
2022-09-12T01:10:03.982Z,14.15
2022-09-12T01:15:04.762Z,14.14
2022-09-12T01:20:05.782Z,14.14
2022-09-12T01:25:06.055Z,14.12
2022-09-12T01:30:06.786Z,14.09
2022-09-12T01:35:07.703Z,14.06
2022-09-12T01:40:08.984Z,14.03
2022-09-12T01:45:09.249Z,13.99
2022-09-12T01:50:10.180Z,13.91
2022-09-12T01:55:10.611Z,13.88
2022-09-12T02:00:10.957Z,13.85
2022-09-12T02:05:11.960Z,13.81
2022-09-12T02:10:12.623Z,13.79
2022-09-12T02:15:13.819Z,13.77
2022-09-12T02:20:21.340Z,13.73
2022-09-12T02:25:15.454Z,13.77
2022-09-12T02:30:15.162Z,13.70
2022-09-12T02:35:16.074Z,13.70
2022-09-12T02:40:18.418Z,13.69
2022-09-12T02:45:17.748Z,13.67
2022-09-12T02:50:18.032Z,13.67
2022-09-12T02:55:18.911Z,13.57
2022-09-12T03:00:20.397Z,13.54
2022-09-12T03:05:21.140Z,13.49
2022-09-12T03:10:22.654Z,13.42
2022-09-12T03:15:22.399Z,13.39
2022-09-12T03:20:31.597Z,13.39
2022-09-12T03:25:23.376Z,13.36
2022-09-12T03:30:32.227Z,13.39
2022-09-12T03:35:24.876Z,13.39
2022-09-12T03:40:25.668Z,13.32
2022-09-12T03:45:26.624Z,13.33
2022-09-12T03:50:26.946Z,13.30
2022-09-12T03:55:27.722Z,13.30
2022-09-12T04:00:28.490Z,13.28
2022-09-12T04:05:29.152Z,13.30
2022-09-12T04:10:29.874Z,13.29
2022-09-12T04:15:30.566Z,13.32
2022-09-12T04:20:31.227Z,13.28
2022-09-12T04:25:31.959Z,13.23
2022-09-12T04:30:32.676Z,13.22
2022-09-12T04:35:33.408Z,13.25
2022-09-12T04:40:34.196Z,13.29
2022-09-12T04:45:34.924Z,13.29
2022-09-12T04:50:35.594Z,13.30
2022-09-12T04:55:36.247Z,13.36
2022-09-12T05:00:36.953Z,13.46
2022-09-12T05:05:37.648Z,13.45
2022-09-12T05:10:38.368Z,13.42
2022-09-12T05:15:39.060Z,13.49
2022-09-12T05:20:39.723Z,13.52
2022-09-12T05:25:40.397Z,13.59
2022-09-12T05:30:41.076Z,13.63
2022-09-12T05:35:41.847Z,13.70
2022-09-12T05:40:42.585Z,13.78
2022-09-12T05:45:43.342Z,13.84
2022-09-12T05:50:44.017Z,13.89
2022-09-12T05:55:44.720Z,13.95
2022-09-12T06:00:45.423Z,13.85
2022-09-12T06:05:50.484Z,13.97
2022-09-12T06:10:46.831Z,14.10
2022-09-12T06:15:47.555Z,14.18
2022-09-12T06:20:48.239Z,14.35
2022-09-12T06:25:48.926Z,14.46
2022-09-12T06:30:49.667Z,14.50
2022-09-12T06:35:50.395Z,14.57
2022-09-12T06:40:51.087Z,14.68
2022-09-12T06:45:51.854Z,14.72
2022-09-12T06:50:52.502Z,14.94
2022-09-12T06:55:53.235Z,15.02
2022-09-12T07:00:58.529Z,15.20
2022-09-12T07:05:55.538Z,15.25
2022-09-12T07:10:55.231Z,15.34
2022-09-12T07:15:55.927Z,15.39
2022-09-12T07:20:56.716Z,15.53
2022-09-12T07:25:57.465Z,15.76
2022-09-12T07:30:58.195Z,15.93
2022-09-12T07:35:58.845Z,16.04
2022-09-12T07:40:59.528Z,16.20
2022-09-12T07:46:00.276Z,16.39
2022-09-12T07:51:00.958Z,16.49
2022-09-12T07:56:01.612Z,16.70
2022-09-12T08:01:02.464Z,16.96
2022-09-12T08:06:03.190Z,17.01
2022-09-12T08:11:03.940Z,17.04
2022-09-12T08:16:04.634Z,17.31
2022-09-12T08:21:05.505Z,17.62
2022-09-12T08:26:06.533Z,17.55
2022-09-12T08:31:06.788Z,17.34
2022-09-12T08:36:07.512Z,17.66
2022-09-12T08:41:08.193Z,17.79
2022-09-12T08:46:09.046Z,17.97
2022-09-12T08:51:09.779Z,18.12
2022-09-12T08:56:10.430Z,17.97
2022-09-12T09:01:11.188Z,18.10
2022-09-12T09:06:11.863Z,18.18
2022-09-12T09:11:12.537Z,18.45
2022-09-12T09:16:13.257Z,18.73
2022-09-12T09:21:13.902Z,18.88
2022-09-12T09:26:14.628Z,18.98
2022-09-12T09:31:22.425Z,18.92
2022-09-12T09:36:16.270Z,19.00
2022-09-12T09:41:17.119Z,19.33
2022-09-12T09:46:18.101Z,19.40
2022-09-12T09:51:18.654Z,19.32
2022-09-12T09:56:23.214Z,19.19
2022-09-12T10:01:20.448Z,19.51
2022-09-12T10:06:20.832Z,19.61
2022-09-12T10:11:21.806Z,19.47
2022-09-12T10:16:22.160Z,19.63
2022-09-12T10:21:22.904Z,19.40
2022-09-12T10:26:23.714Z,19.06
2022-09-12T10:31:24.365Z,19.55
2022-09-12T10:36:25.128Z,19.78
2022-09-12T10:41:25.990Z,20.01
2022-09-12T10:46:26.750Z,20.14
2022-09-12T10:51:27.502Z,20.03
2022-09-12T10:56:28.226Z,20.18
2022-09-12T11:01:28.995Z,20.76
2022-09-12T11:06:29.858Z,21.09
2022-09-12T11:11:30.638Z,21.29
2022-09-12T11:16:31.334Z,20.92
2022-09-12T11:21:32.315Z,20.39
2022-09-12T11:26:32.639Z,20.11
2022-09-12T11:31:33.529Z,20.06
2022-09-12T11:36:34.490Z,20.21
2022-09-12T11:41:34.980Z,20.35
2022-09-12T11:46:35.328Z,20.48
2022-09-12T11:51:36.140Z,20.98
2022-09-12T11:56:36.974Z,21.37
2022-09-12T12:01:42.877Z,21.24
2022-09-12T12:06:39.415Z,21.42
2022-09-12T12:11:39.609Z,21.64
2022-09-12T12:16:39.976Z,21.69
2022-09-12T12:21:40.641Z,21.61
2022-09-12T12:26:41.336Z,21.75
2022-09-12T12:31:42.038Z,21.79
2022-09-12T12:36:42.722Z,21.67
2022-09-12T12:41:43.353Z,21.29
2022-09-12T12:46:44.114Z,21.13
2022-09-12T12:51:44.817Z,21.31
2022-09-12T12:56:45.618Z,21.44
2022-09-12T13:01:46.367Z,21.38
2022-09-12T13:06:47.059Z,21.53
2022-09-12T13:11:47.781Z,21.86
2022-09-12T13:16:48.457Z,21.92
2022-09-12T13:21:49.123Z,21.64
2022-09-12T13:26:49.800Z,21.56
2022-09-12T13:31:50.470Z,21.61
2022-09-12T13:36:51.170Z,21.69
2022-09-12T13:41:51.870Z,21.77
2022-09-12T13:46:52.530Z,21.69
2022-09-12T13:51:53.224Z,21.43
2022-09-12T13:56:54.007Z,21.35
2022-09-12T14:01:54.694Z,21.46
2022-09-12T14:06:55.364Z,21.40
2022-09-12T14:11:56.087Z,21.49
2022-09-12T14:16:56.833Z,21.42
2022-09-12T14:21:57.509Z,21.42
2022-09-12T14:26:58.200Z,21.44
2022-09-12T14:31:58.914Z,21.47
2022-09-12T14:36:59.627Z,21.40
2022-09-12T14:42:00.384Z,21.29
2022-09-12T14:47:01.083Z,21.25
2022-09-12T14:52:01.764Z,21.27
2022-09-12T14:57:02.464Z,21.21
2022-09-12T15:02:03.246Z,21.13
2022-09-12T15:07:04.075Z,21.13
2022-09-12T15:12:05.500Z,21.14
2022-09-12T15:17:05.674Z,21.12
2022-09-12T15:22:06.352Z,21.04
2022-09-12T15:27:07.018Z,21.04
2022-09-12T15:32:14.843Z,20.97
2022-09-12T15:37:08.445Z,20.92
2022-09-12T15:42:10.115Z,20.84
2022-09-12T15:47:10.102Z,20.73
2022-09-12T15:52:10.844Z,20.54
2022-09-12T15:57:11.588Z,20.51
2022-09-12T16:02:12.225Z,20.48
2022-09-12T16:07:12.926Z,20.39
2022-09-12T16:12:13.701Z,20.29
2022-09-12T16:17:14.307Z,20.24
2022-09-12T16:22:15.074Z,20.21
2022-09-12T16:27:15.790Z,20.16
2022-09-12T16:32:16.848Z,20.20
2022-09-12T16:37:17.551Z,20.18
2022-09-12T16:42:18.211Z,20.14
2022-09-12T16:47:18.876Z,20.06
2022-09-12T16:52:19.605Z,20.01
2022-09-12T16:57:20.295Z,19.91
2022-09-12T17:02:21.092Z,19.83
2022-09-12T17:07:21.732Z,19.69
2022-09-12T17:12:22.408Z,19.56
2022-09-12T17:17:23.107Z,19.39
2022-09-12T17:22:23.786Z,19.21
2022-09-12T17:27:24.615Z,19.08
2022-09-12T17:32:25.199Z,18.95
2022-09-12T17:37:25.858Z,18.87
2022-09-12T17:42:27.675Z,18.78
2022-09-12T17:47:27.346Z,18.63
2022-09-12T17:52:28.000Z,18.51
2022-09-12T17:57:28.645Z,18.39
2022-09-12T18:02:33.058Z,18.30
2022-09-12T18:07:30.005Z,18.27
2022-09-12T18:12:30.783Z,18.17
2022-09-12T18:17:31.560Z,18.10
2022-09-12T18:22:32.266Z,18.14
2022-09-12T18:27:33.036Z,18.15
2022-09-12T18:32:33.968Z,18.15
2022-09-12T18:37:34.625Z,18.07
2022-09-12T18:42:35.393Z,17.97
2022-09-12T18:47:36.196Z,17.93
2022-09-12T18:52:37.315Z,17.84
2022-09-12T18:57:37.882Z,17.79
2022-09-12T19:02:38.119Z,17.70
2022-09-12T19:07:38.856Z,17.59
2022-09-12T19:12:39.557Z,17.52
2022-09-12T19:17:40.301Z,17.44
2022-09-12T19:22:41.143Z,17.37
2022-09-12T19:27:41.973Z,17.26
2022-09-12T19:32:42.765Z,17.15
2022-09-12T19:37:43.552Z,17.08
2022-09-12T19:42:44.316Z,17.03
2022-09-12T19:47:45.022Z,16.98
2022-09-12T19:52:45.781Z,16.94
2022-09-12T19:57:46.566Z,16.89
2022-09-12T20:02:47.378Z,16.88
2022-09-12T20:07:48.157Z,16.83
2022-09-12T20:12:48.876Z,16.75
2022-09-12T20:17:49.652Z,16.68
2022-09-12T20:22:50.390Z,16.67
2022-09-12T20:27:51.134Z,16.66
2022-09-12T20:32:51.966Z,16.61
2022-09-12T20:37:52.722Z,16.58
2022-09-12T20:42:53.659Z,16.56
2022-09-12T20:47:54.471Z,16.49
2022-09-12T20:52:55.187Z,16.45
2022-09-12T20:57:55.908Z,16.45
2022-09-12T21:02:56.688Z,16.38
2022-09-12T21:07:57.425Z,16.38
2022-09-12T21:12:58.184Z,16.34
2022-09-12T21:17:59.007Z,16.31
2022-09-12T21:22:59.800Z,16.28
2022-09-12T21:28:00.551Z,16.24
2022-09-12T21:33:01.312Z,16.23
2022-09-12T21:38:09.021Z,16.17
2022-09-12T21:43:02.712Z,16.15
2022-09-12T21:48:03.452Z,16.11
2022-09-12T21:53:04.201Z,16.08
2022-09-12T21:58:05.033Z,16.07
2022-09-12T22:03:05.741Z,16.04
2022-09-12T22:08:06.471Z,16.02
2022-09-12T22:13:07.184Z,15.97
2022-09-12T22:18:08.036Z,15.97
2022-09-12T22:23:08.697Z,15.94
2022-09-12T22:28:09.448Z,15.89
2022-09-12T22:33:10.177Z,15.89
2022-09-12T22:38:10.971Z,15.87
2022-09-12T22:43:11.659Z,15.83
2022-09-12T22:48:12.387Z,15.76
2022-09-12T22:53:13.136Z,15.74
2022-09-12T22:58:13.956Z,15.74
2022-09-12T23:03:14.653Z,15.71
2022-09-12T23:08:15.366Z,15.72
2022-09-12T23:13:16.106Z,15.68
2022-09-12T23:18:16.852Z,15.68
2022-09-12T23:23:17.587Z,15.60
2022-09-12T23:28:18.331Z,15.59
2022-09-12T23:33:19.070Z,15.57
2022-09-12T23:38:19.803Z,15.57
2022-09-12T23:43:20.543Z,15.49
2022-09-12T23:48:21.366Z,15.46
2022-09-12T23:53:22.042Z,15.46
2022-09-12T23:58:22.803Z,15.43
